sensor_id;sensor_type;location;lat;lon;timestamp;temperature;humidity
43320;DHT22;28914;48.722;9.332;2023-07-13T00:04:14;23.20;62.20
43320;DHT22;28914;48.722;9.332;2023-07-13T00:09:33;23.10;62.00
43320;DHT22;28914;48.722;9.332;2023-07-13T00:14:52;23.00;62.00
43320;DHT22;28914;48.722;9.332;2023-07-13T00:20:11;23.00;61.60
43320;DHT22;28914;48.722;9.332;2023-07-13T00:25:31;23.00;61.30
43320;DHT22;28914;48.722;9.332;2023-07-13T00:30:51;23.00;60.70
43320;DHT22;28914;48.722;9.332;2023-07-13T00:36:10;23.10;60.70
43320;DHT22;28914;48.722;9.332;2023-07-13T00:41:31;23.10;60.90
43320;DHT22;28914;48.722;9.332;2023-07-13T00:46:50;23.10;60.40
43320;DHT22;28914;48.722;9.332;2023-07-13T00:52:10;23.10;59.90
43320;DHT22;28914;48.722;9.332;2023-07-13T00:57:29;23.10;59.60
43320;DHT22;28914;48.722;9.332;2023-07-13T01:02:48;23.10;59.20
43320;DHT22;28914;48.722;9.332;2023-07-13T01:08:08;23.10;59.10
43320;DHT22;28914;48.722;9.332;2023-07-13T01:13:27;22.80;58.80
43320;DHT22;28914;48.722;9.332;2023-07-13T01:18:47;22.90;58.60
43320;DHT22;28914;48.722;9.332;2023-07-13T01:24:06;22.90;58.40
43320;DHT22;28914;48.722;9.332;2023-07-13T01:29:25;22.80;58.70
43320;DHT22;28914;48.722;9.332;2023-07-13T01:34:44;22.70;59.20
43320;DHT22;28914;48.722;9.332;2023-07-13T01:40:06;22.60;59.10
43320;DHT22;28914;48.722;9.332;2023-07-13T01:45:27;22.50;59.60
43320;DHT22;28914;48.722;9.332;2023-07-13T01:50:47;22.40;59.90
43320;DHT22;28914;48.722;9.332;2023-07-13T01:56:06;22.30;60.10
43320;DHT22;28914;48.722;9.332;2023-07-13T02:01:26;22.20;60.00
43320;DHT22;28914;48.722;9.332;2023-07-13T02:06:45;22.00;60.70
43320;DHT22;28914;48.722;9.332;2023-07-13T02:12:05;21.90;61.10
43320;DHT22;28914;48.722;9.332;2023-07-13T02:17:24;21.70;61.90
43320;DHT22;28914;48.722;9.332;2023-07-13T02:22:43;21.60;62.20
43320;DHT22;28914;48.722;9.332;2023-07-13T02:28:02;21.50;63.10
43320;DHT22;28914;48.722;9.332;2023-07-13T02:33:22;21.40;63.50
43320;DHT22;28914;48.722;9.332;2023-07-13T02:38:42;21.20;64.00
43320;DHT22;28914;48.722;9.332;2023-07-13T03:29:43;20.20;68.60
43320;DHT22;28914;48.722;9.332;2023-07-13T03:35:02;20.10;68.50
43320;DHT22;28914;48.722;9.332;2023-07-13T03:40:22;20.10;69.50
43320;DHT22;28914;48.722;9.332;2023-07-13T03:45:41;20.10;69.80
43320;DHT22;28914;48.722;9.332;2023-07-13T03:51:00;20.10;69.80
43320;DHT22;28914;48.722;9.332;2023-07-13T03:56:20;20.20;69.90
43320;DHT22;28914;48.722;9.332;2023-07-13T04:01:39;20.30;70.50
43320;DHT22;28914;48.722;9.332;2023-07-13T04:06:58;20.40;70.50
43320;DHT22;28914;48.722;9.332;2023-07-13T04:12:17;20.50;70.10
43320;DHT22;28914;48.722;9.332;2023-07-13T04:17:36;20.60;70.30
43320;DHT22;28914;48.722;9.332;2023-07-13T04:22:56;20.70;70.60
43320;DHT22;28914;48.722;9.332;2023-07-13T04:28:16;20.80;70.00
43320;DHT22;28914;48.722;9.332;2023-07-13T04:33:36;20.90;69.30
43320;DHT22;28914;48.722;9.332;2023-07-13T04:38:56;21.00;68.60
43320;DHT22;28914;48.722;9.332;2023-07-13T04:44:15;21.10;68.40
43320;DHT22;28914;48.722;9.332;2023-07-13T04:49:34;21.20;68.20
43320;DHT22;28914;48.722;9.332;2023-07-13T04:54:54;21.40;68.10
43320;DHT22;28914;48.722;9.332;2023-07-13T05:00:14;21.40;68.50
43320;DHT22;28914;48.722;9.332;2023-07-13T05:05:34;21.50;68.80
43320;DHT22;28914;48.722;9.332;2023-07-13T05:10:53;21.50;68.60
43320;DHT22;28914;48.722;9.332;2023-07-13T05:16:13;21.60;68.80
43320;DHT22;28914;48.722;9.332;2023-07-13T05:21:32;21.60;68.60
43320;DHT22;28914;48.722;9.332;2023-07-13T05:26:52;21.70;68.30
43320;DHT22;28914;48.722;9.332;2023-07-13T05:32:11;21.80;68.40
43320;DHT22;28914;48.722;9.332;2023-07-13T05:37:31;22.00;67.50
43320;DHT22;28914;48.722;9.332;2023-07-13T05:42:50;22.00;66.90
43320;DHT22;28914;48.722;9.332;2023-07-13T05:48:09;22.20;66.70
43320;DHT22;28914;48.722;9.332;2023-07-13T05:53:28;22.20;67.00
43320;DHT22;28914;48.722;9.332;2023-07-13T05:58:48;22.40;65.80
43320;DHT22;28914;48.722;9.332;2023-07-13T06:04:08;22.50;65.30
43320;DHT22;28914;48.722;9.332;2023-07-13T06:09:27;22.60;65.50
43320;DHT22;28914;48.722;9.332;2023-07-13T06:14:46;22.70;64.60
43320;DHT22;28914;48.722;9.332;2023-07-13T06:20:06;22.90;64.20
43320;DHT22;28914;48.722;9.332;2023-07-13T06:25:26;22.90;63.10
43320;DHT22;28914;48.722;9.332;2023-07-13T06:30:46;23.10;62.20
43320;DHT22;28914;48.722;9.332;2023-07-13T06:36:06;23.40;61.80
43320;DHT22;28914;48.722;9.332;2023-07-13T06:41:26;23.80;61.40
43320;DHT22;28914;48.722;9.332;2023-07-13T06:46:45;24.30;59.90
43320;DHT22;28914;48.722;9.332;2023-07-13T06:52:05;24.90;58.60
43320;DHT22;28914;48.722;9.332;2023-07-13T06:57:24;25.30;57.80
43320;DHT22;28914;48.722;9.332;2023-07-13T07:02:44;25.70;57.70
43320;DHT22;28914;48.722;9.332;2023-07-13T07:08:03;26.10;57.40
43320;DHT22;28914;48.722;9.332;2023-07-13T07:13:23;26.60;55.50
43320;DHT22;28914;48.722;9.332;2023-07-13T07:18:42;27.00;54.10
43320;DHT22;28914;48.722;9.332;2023-07-13T07:24:02;27.40;52.80
43320;DHT22;28914;48.722;9.332;2023-07-13T07:29:22;27.90;53.40
43320;DHT22;28914;48.722;9.332;2023-07-13T07:34:41;28.50;52.70
43320;DHT22;28914;48.722;9.332;2023-07-13T07:40:00;29.20;52.50
43320;DHT22;28914;48.722;9.332;2023-07-13T07:45:20;30.00;51.50
43320;DHT22;28914;48.722;9.332;2023-07-13T07:50:40;30.70;50.60
43320;DHT22;28914;48.722;9.332;2023-07-13T07:55:59;31.50;45.40
43320;DHT22;28914;48.722;9.332;2023-07-13T08:01:18;32.30;46.00
43320;DHT22;28914;48.722;9.332;2023-07-13T08:06:37;33.30;45.80
43320;DHT22;28914;48.722;9.332;2023-07-13T08:11:57;34.40;45.40
43320;DHT22;28914;48.722;9.332;2023-07-13T08:17:16;35.70;44.40
43320;DHT22;28914;48.722;9.332;2023-07-13T08:22:35;36.90;41.20
43320;DHT22;28914;48.722;9.332;2023-07-13T08:27:55;38.20;40.70
43320;DHT22;28914;48.722;9.332;2023-07-13T08:33:18;39.30;38.10
43320;DHT22;28914;48.722;9.332;2023-07-13T08:38:38;40.50;34.50
43320;DHT22;28914;48.722;9.332;2023-07-13T08:43:59;41.50;35.40
43320;DHT22;28914;48.722;9.332;2023-07-13T08:49:22;42.50;35.00
43320;DHT22;28914;48.722;9.332;2023-07-13T08:54:45;43.50;32.50
43320;DHT22;28914;48.722;9.332;2023-07-13T09:00:12;44.50;31.30
43320;DHT22;28914;48.722;9.332;2023-07-13T09:05:38;45.20;30.80
43320;DHT22;28914;48.722;9.332;2023-07-13T09:16:43;46.40;28.40
43320;DHT22;28914;48.722;9.332;2023-07-13T09:22:10;46.10;27.70
43320;DHT22;28914;48.722;9.332;2023-07-13T09:27:39;45.30;25.10
43320;DHT22;28914;48.722;9.332;2023-07-13T09:32:58;44.60;27.80
43320;DHT22;28914;48.722;9.332;2023-07-13T09:38:19;44.80;28.80
43320;DHT22;28914;48.722;9.332;2023-07-13T09:43:39;45.60;28.30
43320;DHT22;28914;48.722;9.332;2023-07-13T09:49:22;46.60;27.80
43320;DHT22;28914;48.722;9.332;2023-07-13T09:54:51;47.30;27.40
43320;DHT22;28914;48.722;9.332;2023-07-13T10:00:22;47.40;26.30
43320;DHT22;28914;48.722;9.332;2023-07-13T10:05:44;47.20;26.20
43320;DHT22;28914;48.722;9.332;2023-07-13T10:11:12;46.40;25.20
43320;DHT22;28914;48.722;9.332;2023-07-13T10:16:34;44.90;25.60
43320;DHT22;28914;48.722;9.332;2023-07-13T10:21:56;43.40;25.90
43320;DHT22;28914;48.722;9.332;2023-07-13T10:27:18;41.80;26.50
43320;DHT22;28914;48.722;9.332;2023-07-13T10:32:37;40.40;27.60
43320;DHT22;28914;48.722;9.332;2023-07-13T10:38:13;40.30;28.60
43320;DHT22;28914;48.722;9.332;2023-07-13T10:43:42;41.10;28.70
43320;DHT22;28914;48.722;9.332;2023-07-13T10:49:05;42.30;27.70
43320;DHT22;28914;48.722;9.332;2023-07-13T10:54:33;42.90;27.00
43320;DHT22;28914;48.722;9.332;2023-07-13T11:10:52;42.20;26.60
43320;DHT22;28914;48.722;9.332;2023-07-13T11:16:13;41.50;27.30
43320;DHT22;28914;48.722;9.332;2023-07-13T11:27:41;40.60;27.00
43320;DHT22;28914;48.722;9.332;2023-07-13T11:38:40;39.40;27.70
43320;DHT22;28914;48.722;9.332;2023-07-13T11:44:14;38.80;28.80
43320;DHT22;28914;48.722;9.332;2023-07-13T11:49:44;38.10;28.80
43320;DHT22;28914;48.722;9.332;2023-07-13T11:55:16;37.40;28.50
43320;DHT22;28914;48.722;9.332;2023-07-13T12:00:36;36.80;29.10
43320;DHT22;28914;48.722;9.332;2023-07-13T12:05:59;36.20;28.90
43320;DHT22;28914;48.722;9.332;2023-07-13T12:11:19;35.70;29.90
43320;DHT22;28914;48.722;9.332;2023-07-13T12:16:38;35.40;30.70
43320;DHT22;28914;48.722;9.332;2023-07-13T12:21:59;35.10;30.80
43320;DHT22;28914;48.722;9.332;2023-07-13T12:27:24;34.90;30.70
43320;DHT22;28914;48.722;9.332;2023-07-13T12:33:15;34.70;30.90
43320;DHT22;28914;48.722;9.332;2023-07-13T12:38:34;34.60;31.30
43320;DHT22;28914;48.722;9.332;2023-07-13T12:43:53;34.40;30.40
43320;DHT22;28914;48.722;9.332;2023-07-13T12:49:13;34.10;30.60
43320;DHT22;28914;48.722;9.332;2023-07-13T12:54:33;33.90;31.50
43320;DHT22;28914;48.722;9.332;2023-07-13T12:59:53;33.60;32.00
43320;DHT22;28914;48.722;9.332;2023-07-13T13:05:13;33.30;31.90
43320;DHT22;28914;48.722;9.332;2023-07-13T13:10:33;33.20;32.00
43320;DHT22;28914;48.722;9.332;2023-07-13T13:15:52;33.20;32.30
43320;DHT22;28914;48.722;9.332;2023-07-13T13:21:12;33.10;32.70
43320;DHT22;28914;48.722;9.332;2023-07-13T13:26:31;33.10;32.50
43320;DHT22;28914;48.722;9.332;2023-07-13T13:31:53;33.00;32.40
43320;DHT22;28914;48.722;9.332;2023-07-13T13:37:20;33.00;32.40
43320;DHT22;28914;48.722;9.332;2023-07-13T13:42:40;33.00;33.80
43320;DHT22;28914;48.722;9.332;2023-07-13T13:47:59;33.00;32.00
43320;DHT22;28914;48.722;9.332;2023-07-13T13:53:18;32.90;32.70
43320;DHT22;28914;48.722;9.332;2023-07-13T13:58:37;32.80;32.40
43320;DHT22;28914;48.722;9.332;2023-07-13T14:03:56;32.80;32.30
43320;DHT22;28914;48.722;9.332;2023-07-13T14:09:19;32.70;32.70
43320;DHT22;28914;48.722;9.332;2023-07-13T14:14:39;32.60;32.50
43320;DHT22;28914;48.722;9.332;2023-07-13T14:19:59;32.50;32.30
43320;DHT22;28914;48.722;9.332;2023-07-13T14:25:19;32.50;32.50
43320;DHT22;28914;48.722;9.332;2023-07-13T14:30:39;32.60;32.90
43320;DHT22;28914;48.722;9.332;2023-07-13T14:35:58;32.70;32.60
43320;DHT22;28914;48.722;9.332;2023-07-13T14:41:17;32.70;32.50
43320;DHT22;28914;48.722;9.332;2023-07-13T14:46:37;32.80;32.60
43320;DHT22;28914;48.722;9.332;2023-07-13T14:51:58;33.00;32.50
43320;DHT22;28914;48.722;9.332;2023-07-13T14:57:19;33.00;32.20
43320;DHT22;28914;48.722;9.332;2023-07-13T15:02:39;33.10;32.30
43320;DHT22;28914;48.722;9.332;2023-07-13T15:08:03;33.00;32.00
43320;DHT22;28914;48.722;9.332;2023-07-13T15:13:22;33.00;32.00
43320;DHT22;28914;48.722;9.332;2023-07-13T15:18:43;32.70;31.80
43320;DHT22;28914;48.722;9.332;2023-07-13T15:24:02;32.50;31.90
43320;DHT22;28914;48.722;9.332;2023-07-13T15:29:21;32.20;32.10
43320;DHT22;28914;48.722;9.332;2023-07-13T15:34:42;32.10;32.50
43320;DHT22;28914;48.722;9.332;2023-07-13T15:40:01;32.00;32.80
43320;DHT22;28914;48.722;9.332;2023-07-13T15:45:23;31.90;33.10
43320;DHT22;28914;48.722;9.332;2023-07-13T15:50:49;31.80;33.10
43320;DHT22;28914;48.722;9.332;2023-07-13T15:56:18;31.70;33.00
43320;DHT22;28914;48.722;9.332;2023-07-13T16:01:37;31.50;33.30
43320;DHT22;28914;48.722;9.332;2023-07-13T16:06:56;31.30;33.70
43320;DHT22;28914;48.722;9.332;2023-07-13T16:12:16;31.10;33.70
43320;DHT22;28914;48.722;9.332;2023-07-13T16:17:35;31.00;34.00
43320;DHT22;28914;48.722;9.332;2023-07-13T16:22:55;30.90;34.00
43320;DHT22;28914;48.722;9.332;2023-07-13T16:28:14;30.70;34.20
43320;DHT22;28914;48.722;9.332;2023-07-13T16:33:33;30.50;34.20
43320;DHT22;28914;48.722;9.332;2023-07-13T16:38:52;30.40;34.90
43320;DHT22;28914;48.722;9.332;2023-07-13T16:44:17;30.30;34.30
43320;DHT22;28914;48.722;9.332;2023-07-13T16:49:37;30.20;34.60
43320;DHT22;28914;48.722;9.332;2023-07-13T16:54:57;30.20;34.70
43320;DHT22;28914;48.722;9.332;2023-07-13T17:00:20;30.10;35.40
43320;DHT22;28914;48.722;9.332;2023-07-13T17:05:44;30.00;34.90
43320;DHT22;28914;48.722;9.332;2023-07-13T17:11:04;29.90;34.80
43320;DHT22;28914;48.722;9.332;2023-07-13T17:16:23;29.80;35.10
43320;DHT22;28914;48.722;9.332;2023-07-13T17:21:45;29.70;35.20
43320;DHT22;28914;48.722;9.332;2023-07-13T17:27:05;29.60;35.20
43320;DHT22;28914;48.722;9.332;2023-07-13T17:32:25;29.50;35.30
43320;DHT22;28914;48.722;9.332;2023-07-13T17:37:45;29.40;35.40
43320;DHT22;28914;48.722;9.332;2023-07-13T17:43:04;29.30;35.70
43320;DHT22;28914;48.722;9.332;2023-07-13T17:48:25;29.10;36.00
43320;DHT22;28914;48.722;9.332;2023-07-13T17:53:44;29.00;36.00
43320;DHT22;28914;48.722;9.332;2023-07-13T17:59:03;28.80;36.10
43320;DHT22;28914;48.722;9.332;2023-07-13T18:04:23;28.60;36.20
43320;DHT22;28914;48.722;9.332;2023-07-13T18:09:44;28.50;36.40
43320;DHT22;28914;48.722;9.332;2023-07-13T18:15:05;28.40;36.60
43320;DHT22;28914;48.722;9.332;2023-07-13T18:20:25;28.30;36.70
43320;DHT22;28914;48.722;9.332;2023-07-13T18:25:45;28.20;36.90
43320;DHT22;28914;48.722;9.332;2023-07-13T18:31:11;28.10;37.20
43320;DHT22;28914;48.722;9.332;2023-07-13T18:36:31;28.00;37.70
43320;DHT22;28914;48.722;9.332;2023-07-13T18:41:50;27.90;37.50
43320;DHT22;28914;48.722;9.332;2023-07-13T18:47:17;27.80;37.90
43320;DHT22;28914;48.722;9.332;2023-07-13T18:52:42;27.70;38.30
43320;DHT22;28914;48.722;9.332;2023-07-13T18:58:01;27.60;38.30
43320;DHT22;28914;48.722;9.332;2023-07-13T19:03:25;27.40;38.30
43320;DHT22;28914;48.722;9.332;2023-07-13T19:08:45;27.30;38.60
43320;DHT22;28914;48.722;9.332;2023-07-13T19:14:10;27.20;38.90
43320;DHT22;28914;48.722;9.332;2023-07-13T19:19:30;27.10;39.20
43320;DHT22;28914;48.722;9.332;2023-07-13T19:24:49;27.00;39.10
43320;DHT22;28914;48.722;9.332;2023-07-13T19:30:11;26.90;39.30
43320;DHT22;28914;48.722;9.332;2023-07-13T19:35:30;26.80;39.60
43320;DHT22;28914;48.722;9.332;2023-07-13T19:40:51;26.70;39.70
43320;DHT22;28914;48.722;9.332;2023-07-13T19:46:31;26.60;40.10
43320;DHT22;28914;48.722;9.332;2023-07-13T19:51:51;26.50;40.70
43320;DHT22;28914;48.722;9.332;2023-07-13T19:57:22;26.40;40.20
43320;DHT22;28914;48.722;9.332;2023-07-13T20:02:42;26.20;40.70
43320;DHT22;28914;48.722;9.332;2023-07-13T20:08:05;26.10;40.90
43320;DHT22;28914;48.722;9.332;2023-07-13T20:13:29;25.90;41.10
43320;DHT22;28914;48.722;9.332;2023-07-13T20:18:51;25.80;41.40
43320;DHT22;28914;48.722;9.332;2023-07-13T20:24:19;25.70;42.30
43320;DHT22;28914;48.722;9.332;2023-07-13T20:29:38;25.60;42.90
43320;DHT22;28914;48.722;9.332;2023-07-13T20:34:57;25.50;43.00
43320;DHT22;28914;48.722;9.332;2023-07-13T20:40:19;25.40;43.30
43320;DHT22;28914;48.722;9.332;2023-07-13T20:45:39;25.40;43.60
43320;DHT22;28914;48.722;9.332;2023-07-13T20:50:59;25.30;43.50
43320;DHT22;28914;48.722;9.332;2023-07-13T20:56:21;25.20;43.70
43320;DHT22;28914;48.722;9.332;2023-07-13T21:01:42;25.20;44.10
43320;DHT22;28914;48.722;9.332;2023-07-13T21:07:01;25.00;44.20
43320;DHT22;28914;48.722;9.332;2023-07-13T21:12:20;24.90;44.50
43320;DHT22;28914;48.722;9.332;2023-07-13T21:17:40;24.80;45.00
43320;DHT22;28914;48.722;9.332;2023-07-13T21:23:00;24.60;45.00
43320;DHT22;28914;48.722;9.332;2023-07-13T21:28:21;24.40;45.10
43320;DHT22;28914;48.722;9.332;2023-07-13T21:33:41;24.30;45.60
43320;DHT22;28914;48.722;9.332;2023-07-13T21:39:02;24.10;45.90
43320;DHT22;28914;48.722;9.332;2023-07-13T21:44:28;24.00;46.90
43320;DHT22;28914;48.722;9.332;2023-07-13T21:49:48;23.80;47.40
43320;DHT22;28914;48.722;9.332;2023-07-13T21:55:19;23.60;46.90
43320;DHT22;28914;48.722;9.332;2023-07-13T22:00:38;23.50;47.80
43320;DHT22;28914;48.722;9.332;2023-07-13T22:05:57;23.40;48.10
43320;DHT22;28914;48.722;9.332;2023-07-13T22:11:21;23.20;48.40
43320;DHT22;28914;48.722;9.332;2023-07-13T22:16:41;23.20;48.50
43320;DHT22;28914;48.722;9.332;2023-07-13T22:22:00;23.10;48.80
43320;DHT22;28914;48.722;9.332;2023-07-13T22:27:19;23.00;48.90
43320;DHT22;28914;48.722;9.332;2023-07-13T22:32:39;22.90;49.10
43320;DHT22;28914;48.722;9.332;2023-07-13T22:37:58;22.80;49.30
43320;DHT22;28914;48.722;9.332;2023-07-13T22:43:23;22.70;49.60
43320;DHT22;28914;48.722;9.332;2023-07-13T22:48:49;22.60;50.40
43320;DHT22;28914;48.722;9.332;2023-07-13T22:54:10;22.50;50.30
43320;DHT22;28914;48.722;9.332;2023-07-13T22:59:30;22.40;50.70
43320;DHT22;28914;48.722;9.332;2023-07-13T23:04:49;22.20;51.00
43320;DHT22;28914;48.722;9.332;2023-07-13T23:10:14;22.10;51.20
43320;DHT22;28914;48.722;9.332;2023-07-13T23:15:33;21.90;51.60
43320;DHT22;28914;48.722;9.332;2023-07-13T23:20:53;21.80;51.70
43320;DHT22;28914;48.722;9.332;2023-07-13T23:26:15;21.60;52.10
43320;DHT22;28914;48.722;9.332;2023-07-13T23:31:36;21.50;52.30
43320;DHT22;28914;48.722;9.332;2023-07-13T23:36:55;21.40;52.80
43320;DHT22;28914;48.722;9.332;2023-07-13T23:42:14;21.20;53.00
43320;DHT22;28914;48.722;9.332;2023-07-13T23:47:34;21.10;53.30
43320;DHT22;28914;48.722;9.332;2023-07-13T23:52:54;21.00;53.80
43320;DHT22;28914;48.722;9.332;2023-07-13T23:58:15;20.90;54.10
